createdAt,value
2023-04-23T00:03:02.285Z,13.00
2023-04-23T00:08:28.797Z,13.20
2023-04-23T00:13:56.472Z,13.20
2023-04-23T00:19:19.645Z,13.20
2023-04-23T00:24:41.712Z,13.20
2023-04-23T00:30:04.442Z,13.20
2023-04-23T00:35:28.334Z,13.20
2023-04-23T00:40:50.465Z,13.20
2023-04-23T00:46:35.242Z,13.10
2023-04-23T00:52:18.520Z,13.30
2023-04-23T00:57:59.345Z,13.50
2023-04-23T01:03:59.397Z,13.70
2023-04-23T01:09:46.841Z,14.00
2023-04-23T01:15:10.462Z,14.10
2023-04-23T01:20:32.332Z,14.30
2023-04-23T01:26:09.686Z,14.30
2023-04-23T01:32:16.870Z,14.30
2023-04-23T01:38:00.203Z,14.20
2023-04-23T01:43:50.801Z,14.10
2023-04-23T01:49:20.248Z,14.10
2023-04-23T01:54:42.557Z,14.10
2023-04-23T02:00:11.479Z,14.00
2023-04-23T02:05:46.314Z,14.00
2023-04-23T02:11:39.305Z,13.90
2023-04-23T02:17:20.913Z,13.80
2023-04-23T02:23:06.974Z,13.70
2023-04-23T02:28:34.116Z,13.60
2023-04-23T02:34:01.571Z,13.60
2023-04-23T02:39:23.678Z,13.50
2023-04-23T02:44:45.058Z,13.50
2023-04-23T02:50:07.772Z,13.40
2023-04-23T02:55:32.082Z,13.30
2023-04-23T03:00:54.430Z,13.30
2023-04-23T03:06:16.572Z,13.20
2023-04-23T03:12:04.032Z,13.20
2023-04-23T03:17:47.608Z,13.10
2023-04-23T03:23:37.441Z,13.00
2023-04-23T03:29:05.998Z,12.90
2023-04-23T03:34:28.181Z,12.80
2023-04-23T03:39:49.445Z,12.70
2023-04-23T03:45:11.591Z,12.60
2023-04-23T03:50:38.919Z,12.50
2023-04-23T03:56:35.048Z,12.40
2023-04-23T04:02:33.602Z,12.30
2023-04-23T04:08:21.406Z,12.30
2023-04-23T04:13:44.349Z,12.20
2023-04-23T04:19:12.477Z,12.30
2023-04-23T04:24:35.730Z,12.30
2023-04-23T04:29:57.348Z,12.40
2023-04-23T04:35:19.083Z,12.40
2023-04-23T04:40:41.014Z,12.50
2023-04-23T04:46:24.524Z,12.50
2023-04-23T04:52:07.531Z,12.60
2023-04-23T04:57:51.370Z,12.70
2023-04-23T05:03:39.852Z,12.80
2023-04-23T05:09:04.051Z,13.00
2023-04-23T05:14:26.824Z,13.20
2023-04-23T05:19:48.213Z,13.40
2023-04-23T05:25:14.610Z,13.60
2023-04-23T05:30:36.459Z,13.80
2023-04-23T05:36:27.268Z,14.00
2023-04-23T05:42:09.473Z,14.10
2023-04-23T05:53:28.513Z,14.30
2023-04-23T05:59:05.551Z,14.40
2023-04-23T06:04:42.795Z,14.30
2023-04-23T06:10:12.637Z,14.20
2023-04-23T06:15:36.296Z,14.20
2023-04-23T06:21:26.199Z,14.20
2023-04-23T06:27:18.466Z,13.60
2023-04-23T06:33:01.909Z,13.50
2023-04-23T06:38:33.860Z,13.60
2023-04-23T06:44:03.710Z,13.70
2023-04-23T06:49:42.706Z,13.80
2023-04-23T06:55:04.536Z,13.90
2023-04-23T07:00:27.445Z,14.20
2023-04-23T07:06:11.189Z,14.50
2023-04-23T07:11:37.636Z,15.00
2023-04-23T07:17:17.000Z,15.10
2023-04-23T07:23:05.461Z,15.30
2023-04-23T07:28:42.708Z,15.40
2023-04-23T07:34:11.061Z,15.30
2023-04-23T07:39:34.540Z,15.20
2023-04-23T07:44:55.966Z,15.20
2023-04-23T07:50:17.215Z,15.50
2023-04-23T07:55:39.885Z,15.50
2023-04-23T08:01:02.049Z,15.70
2023-04-23T08:06:41.938Z,15.60
2023-04-23T08:12:48.102Z,15.40
2023-04-23T08:18:27.930Z,15.50
2023-04-23T08:24:08.073Z,15.20
2023-04-23T08:29:30.905Z,15.00
2023-04-23T08:34:52.516Z,15.30
2023-04-23T08:40:14.364Z,15.50
2023-04-23T08:45:41.625Z,15.40
2023-04-23T08:57:25.873Z,15.40
2023-04-23T09:03:11.694Z,15.30
2023-04-23T09:08:39.298Z,15.40
2023-04-23T09:14:13.411Z,15.20
2023-04-23T09:19:36.645Z,15.20
2023-04-23T09:25:01.575Z,15.20
2023-04-23T09:30:25.457Z,15.10
2023-04-23T09:35:50.038Z,15.00
2023-04-23T09:41:42.821Z,14.70
2023-04-23T09:47:25.679Z,14.40
2023-04-23T09:53:07.176Z,14.00
2023-04-23T09:58:54.404Z,13.50
2023-04-23T10:04:32.170Z,13.60
2023-04-23T10:10:10.906Z,13.50
2023-04-23T10:15:34.290Z,13.60
2023-04-23T10:21:23.079Z,13.60
2023-04-23T10:27:17.699Z,13.50
2023-04-23T10:33:01.895Z,13.50
2023-04-23T10:38:24.040Z,13.50
2023-04-23T10:44:01.884Z,13.70
2023-04-23T10:49:25.548Z,13.90
2023-04-23T10:55:02.336Z,14.20
2023-04-23T11:00:23.884Z,14.50
2023-04-23T11:06:09.924Z,14.80
2023-04-23T11:12:17.043Z,15.40
2023-04-23T11:18:01.895Z,15.40
2023-04-23T11:23:47.263Z,15.40
2023-04-23T11:29:17.032Z,15.50
2023-04-23T11:34:45.205Z,15.60
2023-04-23T11:40:12.190Z,16.00
2023-04-23T11:45:33.783Z,16.60
2023-04-23T11:51:05.781Z,16.80
2023-04-23T11:56:58.965Z,16.70
2023-04-23T12:02:42.761Z,16.70
2023-04-23T12:08:11.689Z,17.00
2023-04-23T12:13:57.501Z,17.10
2023-04-23T12:19:29.287Z,17.60
2023-04-23T12:24:55.051Z,17.60
2023-04-23T12:30:16.503Z,17.30
2023-04-23T12:35:46.474Z,17.40
2023-04-23T12:41:24.842Z,17.70
2023-04-23T12:47:30.106Z,18.30
2023-04-23T12:53:09.665Z,18.50
2023-04-23T12:58:53.109Z,18.60
2023-04-23T13:04:33.251Z,18.50
2023-04-23T13:10:03.967Z,18.60
2023-04-23T13:15:29.287Z,18.60
2023-04-23T13:21:02.920Z,19.00
2023-04-23T13:26:43.705Z,19.00
2023-04-23T13:32:22.655Z,19.00
2023-04-23T13:38:03.834Z,19.10
2023-04-23T13:43:42.336Z,19.00
2023-04-23T13:49:10.387Z,19.40
2023-04-23T13:54:33.536Z,19.50
2023-04-23T13:59:55.973Z,19.90
2023-04-23T14:05:36.411Z,20.00
2023-04-23T14:11:51.180Z,19.50
2023-04-23T14:18:00.566Z,19.40
2023-04-23T14:24:07.287Z,19.20
2023-04-23T14:29:41.372Z,19.00
2023-04-23T14:35:03.693Z,19.10
2023-04-23T14:40:25.241Z,19.10
2023-04-23T14:45:47.154Z,19.00
2023-04-23T14:51:30.909Z,19.00
2023-04-23T14:57:15.059Z,19.00
2023-04-23T15:02:48.688Z,18.90
2023-04-23T15:08:18.183Z,18.90
2023-04-23T15:14:15.178Z,19.40
2023-04-23T15:19:38.383Z,19.70
2023-04-23T15:24:59.983Z,19.80
2023-04-23T15:30:23.558Z,19.70
2023-04-23T15:35:45.139Z,20.00
2023-04-23T15:41:32.247Z,20.10
2023-04-23T15:47:19.414Z,19.90
2023-04-23T15:53:07.739Z,19.90
2023-04-23T15:58:39.603Z,19.80
2023-04-23T16:04:27.138Z,19.20
2023-04-23T16:10:13.353Z,19.20
2023-04-23T16:15:37.035Z,19.20
2023-04-23T16:21:20.762Z,18.90
2023-04-23T16:27:13.740Z,18.90
2023-04-23T16:32:58.991Z,18.70
2023-04-23T16:38:35.856Z,18.50
2023-04-23T16:44:18.808Z,17.60
2023-04-23T16:49:41.003Z,17.30
2023-04-23T16:55:02.395Z,17.40
2023-04-23T17:00:24.002Z,17.50
2023-04-23T17:06:12.347Z,17.80
2023-04-23T17:12:02.058Z,17.90
2023-04-23T17:17:55.298Z,18.00
2023-04-23T17:23:28.204Z,17.70
2023-04-23T17:29:04.230Z,17.50
2023-04-23T17:34:33.442Z,17.10
2023-04-23T17:39:55.584Z,16.90
2023-04-23T17:45:18.647Z,16.60
2023-04-23T17:50:40.850Z,16.30
2023-04-23T17:56:29.656Z,16.20
2023-04-23T18:02:20.918Z,15.90
2023-04-23T18:07:43.358Z,15.70
2023-04-23T18:13:17.943Z,15.50
2023-04-23T18:19:05.284Z,15.40
2023-04-23T18:24:28.215Z,15.30
2023-04-23T18:29:49.805Z,15.10
2023-04-23T18:35:11.444Z,15.00
2023-04-23T18:40:33.165Z,14.90
2023-04-23T18:52:15.572Z,14.30
2023-04-23T19:03:47.648Z,14.20
2023-04-23T19:09:36.381Z,14.10
2023-04-23T19:14:59.559Z,14.00
2023-04-23T19:20:21.191Z,13.90
2023-04-23T19:25:42.826Z,13.70
2023-04-23T19:31:41.644Z,13.50
2023-04-23T19:37:28.208Z,13.40
2023-04-23T19:43:00.411Z,13.40
2023-04-23T19:48:35.307Z,13.30
2023-04-23T19:54:08.990Z,13.30
2023-04-23T19:59:31.801Z,13.30
2023-04-23T20:05:04.852Z,13.20
2023-04-23T20:10:30.704Z,13.10
2023-04-23T20:22:04.147Z,12.80
2023-04-23T20:27:48.449Z,12.70
2023-04-23T20:33:35.352Z,12.60
2023-04-23T20:39:09.329Z,12.50
2023-04-23T20:44:32.231Z,12.30
2023-04-23T20:49:53.740Z,12.20
2023-04-23T20:55:15.085Z,12.10
2023-04-23T21:00:37.158Z,11.90
2023-04-23T21:05:59.160Z,11.80
2023-04-23T21:11:27.083Z,11.70
2023-04-23T21:16:49.486Z,11.60
2023-04-23T21:22:25.303Z,11.40
2023-04-23T21:28:09.040Z,11.30
2023-04-23T21:33:50.921Z,11.20
2023-04-23T21:39:18.766Z,11.10
2023-04-23T21:44:41.276Z,11.00
2023-04-23T21:50:03.262Z,11.00
2023-04-23T21:55:31.513Z,11.00
2023-04-23T22:00:54.614Z,11.10
2023-04-23T22:06:39.784Z,11.30
2023-04-23T22:12:18.081Z,11.50
2023-04-23T22:17:57.962Z,11.70
2023-04-23T22:23:39.146Z,11.80
2023-04-23T22:29:09.859Z,11.80
2023-04-23T22:34:32.272Z,11.80
2023-04-23T22:39:54.160Z,11.70
2023-04-23T22:45:15.817Z,11.70
2023-04-23T22:50:40.165Z,11.70
2023-04-23T22:56:25.585Z,11.70
2023-04-23T23:07:47.451Z,11.80
2023-04-23T23:13:23.685Z,11.90
2023-04-23T23:18:57.564Z,12.00
2023-04-23T23:24:22.813Z,12.20
2023-04-23T23:29:44.688Z,12.10
2023-04-23T23:35:06.992Z,12.20
2023-04-23T23:40:30.502Z,12.30
2023-04-23T23:45:59.554Z,12.30
2023-04-23T23:51:31.148Z,12.10
2023-04-23T23:57:16.622Z,12.10
